createdAt,value
2024-02-08T00:00:30.128Z,6.28
2024-02-08T00:02:58.793Z,8.75
2024-02-08T00:05:28.424Z,10.73
2024-02-08T00:07:56.883Z,9.32
2024-02-08T00:10:44.457Z,14.50
2024-02-08T00:13:14.590Z,7.80
2024-02-08T00:15:42.923Z,6.68
2024-02-08T00:18:11.044Z,6.93
2024-02-08T00:20:39.111Z,8.18
2024-02-08T00:23:09.681Z,9.25
2024-02-08T00:25:37.873Z,13.52
2024-02-08T00:28:05.915Z,5.70
2024-02-08T00:30:54.652Z,20.40
2024-02-08T00:33:25.669Z,14.88
2024-02-08T00:35:54.053Z,10.27
2024-02-08T00:38:22.165Z,9.13
2024-02-08T00:40:52.696Z,8.77
2024-02-08T00:46:07.926Z,15.20
2024-02-08T00:48:36.091Z,18.30
2024-02-08T00:51:04.221Z,5.70
2024-02-08T00:53:32.766Z,12.23
2024-02-08T00:56:00.829Z,12.70
2024-02-08T00:58:48.638Z,17.05
2024-02-08T01:01:19.275Z,11.30
2024-02-08T01:03:47.830Z,14.02
2024-02-08T01:06:15.993Z,9.38
2024-02-08T01:08:44.038Z,15.82
2024-02-08T01:11:12.121Z,14.63
2024-02-08T01:13:40.317Z,10.63
2024-02-08T01:16:08.449Z,14.93
2024-02-08T01:18:36.669Z,16.10
2024-02-08T01:21:04.680Z,9.55
2024-02-08T01:23:32.675Z,14.93
2024-02-08T01:26:00.884Z,14.80
2024-02-08T01:28:47.623Z,10.55
2024-02-08T01:31:15.681Z,15.30
2024-02-08T01:33:45.953Z,17.25
2024-02-08T01:36:14.823Z,9.80
2024-02-08T01:38:43.624Z,12.07
2024-02-08T01:41:11.655Z,14.70
2024-02-08T01:43:39.712Z,13.93
2024-02-08T01:46:10.177Z,12.80
2024-02-08T01:48:46.623Z,8.68
2024-02-08T01:51:14.857Z,8.80
2024-02-08T01:53:45.497Z,17.95
2024-02-08T01:56:14.174Z,11.48
2024-02-08T01:58:45.815Z,11.07
2024-02-08T02:01:23.920Z,11.38
2024-02-08T02:03:52.172Z,17.63
2024-02-08T02:06:20.608Z,13.40
2024-02-08T02:08:59.368Z,21.85
2024-02-08T02:11:59.681Z,20.90
2024-02-08T02:14:31.085Z,6.20
2024-02-08T02:17:20.425Z,9.82
2024-02-08T02:19:48.679Z,13.13
2024-02-08T02:22:21.351Z,21.05
2024-02-08T02:24:52.560Z,15.77
2024-02-08T02:27:20.670Z,10.07
2024-02-08T02:29:54.687Z,8.25
2024-02-08T02:32:23.168Z,21.55
2024-02-08T02:34:54.984Z,21.77
2024-02-08T02:37:24.279Z,11.38
2024-02-08T02:39:54.446Z,11.60
2024-02-08T02:42:22.914Z,7.45
2024-02-08T02:44:50.960Z,15.75
2024-02-08T02:47:27.302Z,9.65
2024-02-08T02:49:56.722Z,17.58
2024-02-08T02:52:43.557Z,10.18
2024-02-08T02:55:11.588Z,13.90
2024-02-08T02:57:42.686Z,15.20
2024-02-08T03:00:25.707Z,11.52
2024-02-08T03:02:59.090Z,10.27
2024-02-08T03:05:27.218Z,15.35
2024-02-08T03:07:55.403Z,11.23
2024-02-08T03:10:24.405Z,13.23
2024-02-08T03:12:53.172Z,21.25
2024-02-08T03:15:21.262Z,16.60
2024-02-08T03:17:49.508Z,10.73
2024-02-08T03:20:47.597Z,16.38
2024-02-08T03:23:15.758Z,19.83
2024-02-08T03:25:44.083Z,14.10
2024-02-08T03:28:30.756Z,6.95
2024-02-08T03:33:46.982Z,6.43
2024-02-08T03:36:15.072Z,13.38
2024-02-08T03:38:43.109Z,16.27
2024-02-08T03:41:11.300Z,14.38
2024-02-08T03:43:39.866Z,12.98
2024-02-08T03:46:09.225Z,16.15
2024-02-08T03:48:38.624Z,25.85
2024-02-08T03:51:07.034Z,16.20
2024-02-08T03:53:38.596Z,16.08
2024-02-08T03:56:08.191Z,14.43
2024-02-08T03:58:38.109Z,15.65
2024-02-08T04:01:10.413Z,8.73
2024-02-08T04:04:03.399Z,21.45
2024-02-08T04:07:00.217Z,13.82
2024-02-08T04:09:38.043Z,13.77
2024-02-08T04:12:25.067Z,11.32
2024-02-08T04:15:11.595Z,17.08
2024-02-08T04:17:58.263Z,7.97
2024-02-08T04:20:44.624Z,15.48
2024-02-08T04:23:33.930Z,17.38
2024-02-08T04:26:39.852Z,16.90
2024-02-08T04:29:26.446Z,12.00
2024-02-08T04:32:32.047Z,12.55
2024-02-08T04:35:20.411Z,9.25
2024-02-08T04:38:07.146Z,11.88
2024-02-08T04:40:53.477Z,16.85
2024-02-08T04:43:58.844Z,10.30
2024-02-08T04:46:46.242Z,20.35
2024-02-08T04:49:33.988Z,18.88
2024-02-08T04:52:20.725Z,13.63
2024-02-08T04:54:48.725Z,9.98
2024-02-08T04:57:16.690Z,18.08
2024-02-08T04:59:46.935Z,22.67
2024-02-08T05:02:15.881Z,20.67
2024-02-08T05:04:51.072Z,12.77
2024-02-08T05:07:20.069Z,14.63
2024-02-08T05:09:48.326Z,14.70
2024-02-08T05:12:16.291Z,13.07
2024-02-08T05:14:44.333Z,11.50
2024-02-08T05:17:15.290Z,17.30
2024-02-08T05:19:45.868Z,14.40
2024-02-08T05:22:15.302Z,19.90
2024-02-08T05:24:43.622Z,19.33
2024-02-08T05:27:32.542Z,14.85
2024-02-08T05:30:00.585Z,12.20
2024-02-08T05:32:47.814Z,22.30
2024-02-08T05:35:20.758Z,15.75
2024-02-08T05:37:49.007Z,13.77
2024-02-08T05:40:17.042Z,25.92
2024-02-08T05:42:45.049Z,14.27
2024-02-08T05:45:21.978Z,18.25
2024-02-08T05:47:50.039Z,16.95
2024-02-08T05:50:24.087Z,13.88
2024-02-08T05:52:58.630Z,16.25
2024-02-08T05:55:26.983Z,9.32
2024-02-08T05:57:55.237Z,22.45
2024-02-08T06:00:39.159Z,15.50
2024-02-08T06:03:07.441Z,14.93
2024-02-08T06:05:35.946Z,9.90
2024-02-08T06:08:04.588Z,15.88
2024-02-08T06:10:46.858Z,20.40
2024-02-08T06:16:15.839Z,22.80
2024-02-08T06:18:46.996Z,11.75
2024-02-08T06:24:15.793Z,22.58
2024-02-08T06:26:45.157Z,18.55
2024-02-08T06:29:20.433Z,23.00
2024-02-08T06:31:52.320Z,19.20
2024-02-08T06:34:23.471Z,15.65
2024-02-08T06:37:00.590Z,14.88
2024-02-08T06:39:46.084Z,20.40
2024-02-08T06:42:33.629Z,15.40
2024-02-08T06:45:20.141Z,18.25
2024-02-08T06:51:23.989Z,10.77
2024-02-08T06:54:11.217Z,10.45
2024-02-08T06:56:58.470Z,20.02
2024-02-08T06:59:45.432Z,18.33
2024-02-08T07:02:32.412Z,17.38
2024-02-08T07:05:19.113Z,17.40
2024-02-08T07:08:05.752Z,14.77
2024-02-08T07:14:15.060Z,13.73
2024-02-08T07:17:01.393Z,18.88
2024-02-08T07:19:47.643Z,28.10
2024-02-08T07:22:34.315Z,16.65
2024-02-08T07:25:20.826Z,13.48
2024-02-08T07:28:07.700Z,17.33
2024-02-08T07:30:57.894Z,19.05
2024-02-08T07:33:44.768Z,19.15
2024-02-08T07:36:50.082Z,16.52
2024-02-08T07:39:36.763Z,22.08
2024-02-08T07:42:21.671Z,19.77
2024-02-08T07:44:56.569Z,26.20
2024-02-08T07:47:29.002Z,17.95
2024-02-08T07:49:59.814Z,31.02
2024-02-08T07:52:31.311Z,21.85
2024-02-08T07:55:28.731Z,17.35
2024-02-08T07:57:59.776Z,25.27
2024-02-08T08:03:17.886Z,17.58
2024-02-08T08:05:47.047Z,12.52
2024-02-08T08:08:34.527Z,20.63
2024-02-08T08:11:07.206Z,26.95
2024-02-08T08:13:52.050Z,23.38
2024-02-08T08:16:33.361Z,18.98
2024-02-08T08:19:09.947Z,16.02
2024-02-08T08:22:01.988Z,26.88
2024-02-08T08:24:30.170Z,21.02
2024-02-08T08:27:27.875Z,19.85
2024-02-08T08:30:00.385Z,24.52
2024-02-08T08:32:31.563Z,17.20
2024-02-08T08:35:36.946Z,22.17
2024-02-08T08:38:22.055Z,18.80
2024-02-08T08:40:51.526Z,21.40
2024-02-08T08:43:26.552Z,19.48
2024-02-08T08:46:11.318Z,17.67
2024-02-08T08:48:40.355Z,13.05
2024-02-08T08:54:16.148Z,22.52
2024-02-08T08:56:44.673Z,18.75
2024-02-08T08:59:13.136Z,18.95
2024-02-08T09:01:42.539Z,12.55
2024-02-08T09:04:12.174Z,34.00
2024-02-08T09:06:44.047Z,28.13
2024-02-08T09:09:39.554Z,20.38
2024-02-08T09:12:09.381Z,25.95
2024-02-08T09:14:42.079Z,29.33
2024-02-08T09:17:24.466Z,27.42
2024-02-08T09:19:54.116Z,15.40
2024-02-08T09:22:22.310Z,25.13
2024-02-08T09:24:52.357Z,23.13
2024-02-08T09:27:27.009Z,32.72
2024-02-08T09:29:58.213Z,18.50
2024-02-08T09:35:14.772Z,26.10
2024-02-08T09:37:48.787Z,25.98
2024-02-08T09:40:30.221Z,18.17
2024-02-08T09:43:18.493Z,23.85
2024-02-08T09:46:03.062Z,25.40
2024-02-08T09:48:38.892Z,27.33
2024-02-08T09:51:14.922Z,27.95
2024-02-08T09:53:53.591Z,23.55
2024-02-08T09:56:40.780Z,28.13
2024-02-08T09:59:11.406Z,22.73
2024-02-08T10:01:46.868Z,17.77
2024-02-08T10:04:21.020Z,29.80
2024-02-08T10:06:57.843Z,27.23
2024-02-08T10:09:38.383Z,20.05
2024-02-08T10:12:10.114Z,25.67
2024-02-08T10:14:43.918Z,26.80
2024-02-08T10:20:22.513Z,28.92
2024-02-08T10:23:23.566Z,27.80
2024-02-08T10:26:17.359Z,27.63
2024-02-08T10:28:48.497Z,30.85
2024-02-08T10:31:29.698Z,29.05
2024-02-08T10:34:11.572Z,31.98
2024-02-08T10:36:47.166Z,44.55
2024-02-08T10:39:28.289Z,25.58
2024-02-08T10:41:59.905Z,30.73
2024-02-08T10:44:39.190Z,31.25
2024-02-08T10:47:10.900Z,31.55
2024-02-08T10:49:59.594Z,24.27
2024-02-08T10:52:35.762Z,32.30
2024-02-08T10:55:20.164Z,33.22
2024-02-08T10:58:07.043Z,29.98
2024-02-08T11:04:23.556Z,34.33
2024-02-08T11:06:56.723Z,32.55
2024-02-08T11:09:28.918Z,31.83
2024-02-08T11:12:10.411Z,32.70
2024-02-08T11:14:44.545Z,24.05
2024-02-08T11:17:23.480Z,32.65
2024-02-08T11:20:00.194Z,37.75
2024-02-08T11:25:40.470Z,37.17
2024-02-08T11:31:14.225Z,32.55
2024-02-08T11:33:43.897Z,32.08
2024-02-08T11:39:23.107Z,38.10
2024-02-08T11:41:51.414Z,29.90
2024-02-08T11:44:30.372Z,33.78
2024-02-08T11:47:21.258Z,23.80
2024-02-08T11:49:54.463Z,31.20
2024-02-08T11:52:25.633Z,24.77
2024-02-08T11:55:10.180Z,30.05
2024-02-08T11:57:58.569Z,36.08
2024-02-08T12:00:27.177Z,31.70
2024-02-08T12:03:03.387Z,29.88
2024-02-08T12:05:58.870Z,29.20
2024-02-08T12:08:34.386Z,28.55
2024-02-08T12:11:08.889Z,34.08
2024-02-08T12:13:41.136Z,25.75
2024-02-08T12:16:09.475Z,27.00
2024-02-08T12:18:38.583Z,37.30
2024-02-08T12:21:13.126Z,23.65
2024-02-08T12:23:42.541Z,33.33
2024-02-08T12:26:13.719Z,31.75
2024-02-08T12:28:44.454Z,35.15
2024-02-08T12:31:19.843Z,36.30
2024-02-08T12:33:53.921Z,40.60
2024-02-08T12:36:25.063Z,22.95
2024-02-08T12:41:41.424Z,37.63
2024-02-08T12:44:10.456Z,34.55
2024-02-08T12:46:39.589Z,29.15
2024-02-08T12:49:08.915Z,34.67
2024-02-08T12:51:41.334Z,34.05
2024-02-08T12:54:10.439Z,38.95
2024-02-08T12:56:40.618Z,36.83
2024-02-08T12:59:08.786Z,36.85
2024-02-08T13:01:46.132Z,34.47
2024-02-08T13:04:19.143Z,40.90
2024-02-08T13:06:54.088Z,31.63
2024-02-08T13:12:21.181Z,33.45
2024-02-08T13:14:52.404Z,29.40
2024-02-08T13:17:22.215Z,39.60
2024-02-08T13:19:57.462Z,32.45
2024-02-08T13:22:33.061Z,33.17
2024-02-08T13:25:01.336Z,45.22
2024-02-08T13:27:35.173Z,32.97
2024-02-08T13:30:03.317Z,32.83
2024-02-08T13:32:32.844Z,40.53
2024-02-08T13:35:04.682Z,37.33
2024-02-08T13:37:36.654Z,30.05
2024-02-08T13:40:05.960Z,30.52
2024-02-08T13:42:47.440Z,56.28
2024-02-08T13:45:27.395Z,34.97
2024-02-08T13:47:59.482Z,42.88
2024-02-08T13:50:48.472Z,35.78
2024-02-08T13:53:17.195Z,34.83
2024-02-08T13:55:56.015Z,39.05
2024-02-08T13:58:27.509Z,27.27
2024-02-08T14:00:56.820Z,30.50
2024-02-08T14:03:26.178Z,38.42
2024-02-08T14:06:13.335Z,38.92
2024-02-08T14:08:48.466Z,42.47
2024-02-08T14:11:20.886Z,29.63
2024-02-08T14:13:52.319Z,44.90
2024-02-08T14:16:39.129Z,32.58
2024-02-08T14:19:07.263Z,30.65
2024-02-08T14:21:42.429Z,44.22
2024-02-08T14:24:13.094Z,48.90
2024-02-08T14:26:44.909Z,43.63
2024-02-08T14:29:14.598Z,37.50
2024-02-08T14:31:43.357Z,44.20
2024-02-08T14:34:12.938Z,38.65
2024-02-08T14:39:29.247Z,48.63
2024-02-08T14:42:00.368Z,42.70
2024-02-08T14:44:43.611Z,29.60
2024-02-08T14:47:32.873Z,33.00
2024-02-08T14:50:02.499Z,29.98
2024-02-08T14:52:45.936Z,33.20
2024-02-08T14:55:23.647Z,34.08
2024-02-08T14:58:01.133Z,44.08
2024-02-08T15:00:32.737Z,38.90
2024-02-08T15:03:11.233Z,40.67
2024-02-08T15:06:02.909Z,43.25
2024-02-08T15:08:31.472Z,41.50
2024-02-08T15:11:10.418Z,43.78
2024-02-08T15:16:33.345Z,40.35
2024-02-08T15:19:01.783Z,45.20
2024-02-08T15:21:39.121Z,45.03
2024-02-08T15:27:01.330Z,53.60
2024-02-08T15:29:35.099Z,46.80
2024-02-08T15:32:06.756Z,42.17
2024-02-08T15:35:03.842Z,47.00
2024-02-08T15:37:43.766Z,50.67
2024-02-08T15:40:16.336Z,42.88
2024-02-08T15:42:44.941Z,51.10
2024-02-08T15:45:31.797Z,45.50
2024-02-08T15:48:03.969Z,46.85
2024-02-08T15:50:58.974Z,40.33
2024-02-08T15:53:28.963Z,31.05
2024-02-08T15:56:00.263Z,52.95
2024-02-08T16:01:16.129Z,37.05
2024-02-08T16:04:06.219Z,47.15
2024-02-08T16:06:43.353Z,50.67
2024-02-08T16:12:15.580Z,38.10
2024-02-08T16:14:45.064Z,57.08
2024-02-08T16:17:38.985Z,33.97
2024-02-08T16:20:16.111Z,40.42
2024-02-08T16:22:56.080Z,40.30
2024-02-08T16:25:46.751Z,50.53
2024-02-08T16:28:39.206Z,57.28
2024-02-08T16:31:19.823Z,39.40
2024-02-08T16:34:11.129Z,50.63
2024-02-08T16:36:46.544Z,54.80
2024-02-08T16:39:14.597Z,36.17
2024-02-08T16:42:11.166Z,45.85
2024-02-08T16:44:52.454Z,40.75
2024-02-08T16:47:35.996Z,37.85
2024-02-08T16:50:19.406Z,50.35
2024-02-08T16:52:49.669Z,40.72
2024-02-08T16:55:24.275Z,49.75
2024-02-08T16:58:02.977Z,34.38
2024-02-08T17:01:20.810Z,39.15
2024-02-08T17:03:52.760Z,50.78
2024-02-08T17:06:45.585Z,55.55
2024-02-08T17:09:13.935Z,48.00
2024-02-08T17:11:46.733Z,31.80
2024-02-08T17:14:33.259Z,30.75
2024-02-08T17:17:07.713Z,47.65
2024-02-08T17:19:35.884Z,39.80
2024-02-08T17:22:06.981Z,48.25
2024-02-08T17:24:41.474Z,45.05
2024-02-08T17:27:30.623Z,42.17
2024-02-08T17:30:17.541Z,54.63
2024-02-08T17:32:45.666Z,43.85
2024-02-08T17:35:17.785Z,42.83
2024-02-08T17:38:04.635Z,55.20
2024-02-08T17:40:32.872Z,40.45
2024-02-08T17:43:01.872Z,56.08
2024-02-08T17:45:47.982Z,59.60
2024-02-08T17:48:16.619Z,42.03
2024-02-08T17:51:08.927Z,42.22
2024-02-08T17:53:40.576Z,44.88
2024-02-08T17:58:40.506Z,32.67
2024-02-08T18:01:17.132Z,46.60
2024-02-08T18:03:47.969Z,51.33
2024-02-08T18:06:18.633Z,43.22
2024-02-08T18:08:48.797Z,40.75
2024-02-08T18:11:17.959Z,35.58
2024-02-08T18:13:46.563Z,31.77
2024-02-08T18:16:15.627Z,38.15
2024-02-08T18:18:43.974Z,40.80
2024-02-08T18:21:35.456Z,57.78
2024-02-08T18:24:07.674Z,50.50
2024-02-08T18:26:36.866Z,42.55
2024-02-08T18:29:05.337Z,47.00
2024-02-08T18:31:34.323Z,44.15
2024-02-08T18:34:03.970Z,64.15
2024-02-08T18:36:32.222Z,40.17
2024-02-08T18:39:00.304Z,39.72
2024-02-08T18:41:28.575Z,48.88
2024-02-08T18:43:56.702Z,41.38
2024-02-08T18:46:29.386Z,42.92
2024-02-08T18:48:58.073Z,41.05
2024-02-08T18:51:26.808Z,39.47
2024-02-08T18:53:57.390Z,45.75
2024-02-08T18:56:26.913Z,36.60
2024-02-08T18:58:55.270Z,51.00
2024-02-08T19:01:27.030Z,59.65
2024-02-08T19:03:55.535Z,41.88
2024-02-08T19:06:28.203Z,42.45
2024-02-08T19:08:56.850Z,38.50
2024-02-08T19:11:25.019Z,48.10
2024-02-08T19:14:11.459Z,44.83
2024-02-08T19:16:43.867Z,26.42
2024-02-08T19:19:12.882Z,49.45
2024-02-08T19:21:59.427Z,33.10
2024-02-08T19:24:30.303Z,46.30
2024-02-08T19:27:16.522Z,28.95
2024-02-08T19:29:47.789Z,68.18
2024-02-08T19:32:20.704Z,33.92
2024-02-08T19:34:55.922Z,38.50
2024-02-08T19:37:42.384Z,35.65
2024-02-08T19:40:31.294Z,39.30
2024-02-08T19:43:04.902Z,30.80
2024-02-08T19:45:33.272Z,38.35
2024-02-08T19:48:02.161Z,30.60
2024-02-08T19:50:30.594Z,31.85
2024-02-08T19:52:59.839Z,36.13
2024-02-08T19:55:31.258Z,39.15
2024-02-08T19:58:00.705Z,35.67
2024-02-08T20:03:28.518Z,40.92
2024-02-08T20:05:56.829Z,26.60
2024-02-08T20:08:24.960Z,30.92
2024-02-08T20:10:53.039Z,19.90
2024-02-08T20:13:25.963Z,21.25
2024-02-08T20:15:54.496Z,24.10
2024-02-08T20:18:22.761Z,35.15
2024-02-08T20:20:53.744Z,33.30
2024-02-08T20:23:23.655Z,27.23
2024-02-08T20:25:55.971Z,29.45
2024-02-08T20:28:24.517Z,28.45
2024-02-08T20:30:58.350Z,31.48
2024-02-08T20:33:32.744Z,28.05
2024-02-08T20:36:02.281Z,28.13
2024-02-08T20:38:32.544Z,21.88
2024-02-08T20:41:00.789Z,29.90
2024-02-08T20:43:28.902Z,22.65
2024-02-08T20:46:01.243Z,17.52
2024-02-08T20:48:30.604Z,29.27
2024-02-08T20:50:59.234Z,32.22
2024-02-08T20:53:28.680Z,28.27
2024-02-08T20:55:57.435Z,27.88
2024-02-08T20:58:26.207Z,32.28
2024-02-08T21:00:54.531Z,21.15
2024-02-08T21:03:28.260Z,27.25
2024-02-08T21:06:15.246Z,26.60
2024-02-08T21:08:44.518Z,36.50
2024-02-08T21:11:13.358Z,19.98
2024-02-08T21:13:49.395Z,23.05
2024-02-08T21:16:21.427Z,34.90
2024-02-08T21:18:52.589Z,17.17
2024-02-08T21:21:20.971Z,34.40
2024-02-08T21:23:49.665Z,21.50
2024-02-08T21:26:38.668Z,31.83
2024-02-08T21:29:06.828Z,28.52
2024-02-08T21:31:35.021Z,24.98
2024-02-08T21:34:03.438Z,25.20
2024-02-08T21:36:31.508Z,16.63
2024-02-08T21:38:59.645Z,21.23
2024-02-08T21:41:48.070Z,19.88
2024-02-08T21:44:16.380Z,22.95
2024-02-08T21:46:44.457Z,18.38
2024-02-08T21:49:30.925Z,31.33
2024-02-08T21:54:44.565Z,22.05
2024-02-08T21:57:16.293Z,21.27
2024-02-08T21:59:44.488Z,29.05
2024-02-08T22:02:12.573Z,27.40
2024-02-08T22:04:41.109Z,29.25
2024-02-08T22:07:09.508Z,29.08
2024-02-08T22:09:37.727Z,25.42
2024-02-08T22:15:10.391Z,23.08
2024-02-08T22:17:38.736Z,40.65
2024-02-08T22:20:26.059Z,25.90
2024-02-08T22:22:55.275Z,22.17
2024-02-08T22:25:24.750Z,20.40
2024-02-08T22:27:56.119Z,21.98
2024-02-08T22:30:24.371Z,24.02
2024-02-08T22:32:54.029Z,21.27
2024-02-08T22:35:22.238Z,20.20
2024-02-08T22:37:50.432Z,34.00
2024-02-08T22:40:20.513Z,34.08
2024-02-08T22:42:49.395Z,30.17
2024-02-08T22:45:22.663Z,33.30
2024-02-08T22:47:51.913Z,30.92
2024-02-08T22:50:23.619Z,24.20
2024-02-08T22:53:14.104Z,18.40
2024-02-08T22:55:43.766Z,24.83
2024-02-08T22:58:14.710Z,22.75
2024-02-08T23:01:00.160Z,18.58
2024-02-08T23:06:16.565Z,23.45
2024-02-08T23:08:45.105Z,22.42
2024-02-08T23:11:13.193Z,26.50
2024-02-08T23:13:43.602Z,33.97
2024-02-08T23:16:11.617Z,26.85
2024-02-08T23:18:40.709Z,24.42
2024-02-08T23:21:08.823Z,25.35
2024-02-08T23:23:40.034Z,19.40
2024-02-08T23:26:08.282Z,35.72
2024-02-08T23:28:36.901Z,28.13
2024-02-08T23:31:10.206Z,32.80
2024-02-08T23:33:38.569Z,23.05
2024-02-08T23:36:08.486Z,32.40
2024-02-08T23:38:36.534Z,18.27
2024-02-08T23:41:08.478Z,23.48
2024-02-08T23:43:39.197Z,24.00
2024-02-08T23:46:09.305Z,23.58
2024-02-08T23:48:40.834Z,17.05
2024-02-08T23:51:09.348Z,20.15
2024-02-08T23:53:38.215Z,23.83
2024-02-08T23:56:09.945Z,24.73
2024-02-08T23:58:38.342Z,35.58
